createdAt,value
2023-04-24T00:02:20.592Z,6.50
2023-04-24T00:04:47.318Z,7.18
2023-04-24T00:07:14.177Z,10.15
2023-04-24T00:09:41.253Z,12.60
2023-04-24T00:12:08.034Z,8.70
2023-04-24T00:14:35.933Z,8.45
2023-04-24T00:17:03.494Z,10.77
2023-04-24T00:19:30.249Z,10.55
2023-04-24T00:21:56.998Z,13.07
2023-04-24T00:24:23.549Z,9.40
2023-04-24T00:26:50.813Z,12.02
2023-04-24T00:29:17.345Z,11.85
2023-04-24T00:31:43.875Z,8.57
2023-04-24T00:34:12.862Z,12.45
2023-04-24T00:36:39.444Z,13.15
2023-04-24T00:39:06.012Z,12.07
2023-04-24T00:41:32.924Z,10.43
2023-04-24T00:43:59.401Z,7.30
2023-04-24T00:46:26.082Z,8.45
2023-04-24T00:48:53.287Z,15.63
2023-04-24T00:51:20.090Z,16.55
2023-04-24T00:53:46.575Z,18.05
2023-04-24T00:56:13.082Z,16.35
2023-04-24T00:58:39.778Z,18.17
2023-04-24T01:01:08.089Z,20.60
2023-04-24T01:03:38.207Z,12.90
2023-04-24T01:06:06.274Z,17.67
2023-04-24T01:08:33.774Z,14.45
2023-04-24T01:11:01.399Z,17.40
2023-04-24T01:13:28.611Z,13.75
2023-04-24T01:15:55.271Z,19.50
2023-04-24T01:18:23.594Z,8.60
2023-04-24T01:20:54.400Z,19.05
2023-04-24T01:23:20.994Z,12.73
2023-04-24T01:25:47.756Z,9.80
2023-04-24T01:28:15.148Z,10.07
2023-04-24T01:30:42.292Z,8.25
2023-04-24T01:33:09.108Z,10.82
2023-04-24T01:35:37.185Z,11.23
2023-04-24T01:38:04.385Z,8.40
2023-04-24T01:40:31.836Z,15.50
2023-04-24T01:42:59.121Z,7.13
2023-04-24T01:45:26.486Z,11.07
2023-04-24T01:47:53.394Z,9.60
2023-04-24T01:50:20.177Z,14.00
2023-04-24T01:52:46.710Z,7.03
2023-04-24T01:55:13.199Z,14.98
2023-04-24T01:57:40.655Z,13.45
2023-04-24T02:00:08.214Z,8.75
2023-04-24T02:02:35.234Z,9.82
2023-04-24T02:05:01.982Z,11.10
2023-04-24T02:07:28.519Z,5.85
2023-04-24T02:09:56.993Z,8.18
2023-04-24T02:12:23.536Z,4.38
2023-04-24T02:14:50.124Z,8.48
2023-04-24T02:17:17.175Z,7.65
2023-04-24T02:19:44.013Z,6.88
2023-04-24T02:22:11.561Z,5.80
2023-04-24T02:24:39.198Z,12.90
2023-04-24T02:27:06.016Z,6.63
2023-04-24T02:29:32.528Z,10.07
2023-04-24T02:31:59.612Z,21.88
2023-04-24T02:34:26.418Z,14.77
2023-04-24T02:36:54.894Z,9.55
2023-04-24T02:39:21.517Z,10.75
2023-04-24T02:41:48.077Z,8.00
2023-04-24T02:44:14.596Z,10.52
2023-04-24T02:46:42.941Z,10.93
2023-04-24T02:49:09.472Z,13.18
2023-04-24T02:51:35.964Z,8.95
2023-04-24T02:54:02.480Z,8.90
2023-04-24T02:56:29.524Z,7.20
2023-04-24T02:58:56.071Z,6.47
2023-04-24T03:01:22.605Z,10.60
2023-04-24T03:03:49.290Z,10.38
2023-04-24T03:06:16.521Z,8.45
2023-04-24T03:08:43.062Z,7.43
2023-04-24T03:11:09.557Z,7.07
2023-04-24T03:13:36.256Z,7.07
2023-04-24T03:16:02.964Z,7.68
2023-04-24T03:18:29.499Z,8.13
2023-04-24T03:20:56.049Z,16.58
2023-04-24T03:23:22.585Z,10.73
2023-04-24T03:25:49.556Z,9.32
2023-04-24T03:28:16.098Z,4.05
2023-04-24T03:30:42.611Z,16.88
2023-04-24T03:33:09.180Z,12.70
2023-04-24T03:35:35.722Z,11.00
2023-04-24T03:38:02.954Z,11.68
2023-04-24T03:40:30.671Z,10.68
2023-04-24T03:42:57.263Z,8.30
2023-04-24T03:45:23.795Z,10.23
2023-04-24T03:47:50.448Z,8.27
2023-04-24T03:50:17.121Z,8.02
2023-04-24T03:52:43.722Z,5.55
2023-04-24T03:55:13.845Z,9.23
2023-04-24T03:57:41.754Z,4.32
2023-04-24T04:00:09.966Z,13.20
2023-04-24T04:02:36.781Z,13.40
2023-04-24T04:05:03.902Z,4.40
2023-04-24T04:07:31.037Z,9.60
2023-04-24T04:09:57.642Z,6.60
2023-04-24T04:12:24.199Z,8.32
2023-04-24T04:14:50.721Z,7.35
2023-04-24T04:17:17.286Z,6.95
2023-04-24T04:19:44.050Z,7.40
2023-04-24T04:22:10.814Z,11.00
2023-04-24T04:24:38.929Z,8.75
2023-04-24T04:27:06.551Z,9.68
2023-04-24T04:29:33.717Z,14.15
2023-04-24T04:32:00.592Z,6.18
2023-04-24T04:34:27.193Z,6.72
2023-04-24T04:36:53.817Z,10.27
2023-04-24T04:39:20.855Z,10.35
2023-04-24T04:41:50.182Z,10.77
2023-04-24T04:44:16.736Z,6.28
2023-04-24T04:46:43.277Z,7.55
2023-04-24T04:49:09.755Z,13.80
2023-04-24T04:51:36.502Z,14.52
2023-04-24T04:54:03.189Z,9.15
2023-04-24T04:56:29.687Z,11.43
2023-04-24T04:58:56.247Z,7.22
2023-04-24T05:01:24.179Z,7.82
2023-04-24T05:03:50.925Z,13.65
2023-04-24T05:06:18.087Z,12.32
2023-04-24T05:08:44.968Z,11.93
2023-04-24T05:11:11.530Z,9.52
2023-04-24T05:13:41.010Z,14.23
2023-04-24T05:16:08.811Z,10.70
2023-04-24T05:18:35.549Z,9.68
2023-04-24T05:21:02.372Z,14.57
2023-04-24T05:23:29.012Z,9.70
2023-04-24T05:25:55.684Z,8.15
2023-04-24T05:28:22.167Z,10.55
2023-04-24T05:30:48.669Z,15.23
2023-04-24T05:33:15.551Z,13.93
2023-04-24T05:35:47.556Z,13.70
2023-04-24T05:38:14.689Z,9.07
2023-04-24T05:40:41.243Z,14.55
2023-04-24T05:43:07.741Z,15.90
2023-04-24T05:45:36.960Z,9.77
2023-04-24T05:48:04.342Z,10.20
2023-04-24T05:50:31.107Z,14.23
2023-04-24T05:52:59.453Z,11.82
2023-04-24T05:55:26.904Z,12.05
2023-04-24T05:57:53.656Z,15.77
2023-04-24T06:00:21.113Z,11.93
2023-04-24T06:02:48.353Z,14.95
2023-04-24T06:05:15.985Z,12.52
2023-04-24T06:07:42.925Z,14.85
2023-04-24T06:10:10.593Z,9.70
2023-04-24T06:12:37.619Z,13.35
2023-04-24T06:15:05.112Z,10.57
2023-04-24T06:17:32.310Z,8.77
2023-04-24T06:19:58.826Z,12.02
2023-04-24T06:22:25.458Z,18.42
2023-04-24T06:24:52.230Z,17.05
2023-04-24T06:27:18.757Z,14.43
2023-04-24T06:29:45.646Z,8.93
2023-04-24T06:32:12.758Z,14.23
2023-04-24T06:34:39.653Z,10.23
2023-04-24T06:37:06.573Z,14.18
2023-04-24T06:39:33.257Z,14.57
2023-04-24T06:41:59.854Z,11.05
2023-04-24T06:44:26.377Z,12.88
2023-04-24T06:46:53.033Z,17.08
2023-04-24T06:49:19.523Z,13.63
2023-04-24T06:51:46.299Z,9.57
2023-04-24T06:54:13.100Z,13.50
2023-04-24T06:56:39.629Z,13.77
2023-04-24T06:59:06.172Z,13.13
2023-04-24T07:01:32.735Z,13.55
2023-04-24T07:03:59.406Z,16.15
2023-04-24T07:06:26.521Z,17.25
2023-04-24T07:08:53.061Z,14.10
2023-04-24T07:11:19.632Z,9.77
2023-04-24T07:13:46.173Z,9.57
2023-04-24T07:16:12.750Z,14.48
2023-04-24T07:18:40.778Z,11.63
2023-04-24T07:21:08.282Z,14.15
2023-04-24T07:23:34.854Z,9.07
2023-04-24T07:26:01.512Z,14.05
2023-04-24T07:28:28.174Z,6.00
2023-04-24T07:30:55.157Z,8.52
2023-04-24T07:33:22.003Z,7.13
2023-04-24T07:35:48.815Z,11.50
2023-04-24T07:38:15.665Z,12.98
2023-04-24T07:40:42.978Z,18.88
2023-04-24T07:43:09.636Z,6.53
2023-04-24T07:45:38.466Z,9.77
2023-04-24T07:48:05.530Z,4.65
2023-04-24T07:50:32.314Z,7.18
2023-04-24T07:52:58.854Z,7.88
2023-04-24T07:55:28.115Z,9.80
2023-04-24T07:57:55.084Z,5.65
2023-04-24T08:00:21.842Z,9.30
2023-04-24T08:02:48.932Z,3.88
2023-04-24T08:05:15.904Z,11.25
2023-04-24T08:07:43.733Z,6.32
2023-04-24T08:10:13.305Z,12.57
2023-04-24T08:12:40.219Z,8.98
2023-04-24T08:15:07.313Z,7.03
2023-04-24T08:17:36.019Z,10.80
2023-04-24T08:20:04.885Z,7.03
2023-04-24T08:22:31.844Z,13.32
2023-04-24T08:25:01.738Z,10.10
2023-04-24T08:27:28.549Z,8.63
2023-04-24T08:29:55.789Z,8.60
2023-04-24T08:32:22.312Z,13.88
2023-04-24T08:34:49.997Z,4.85
2023-04-24T08:37:16.631Z,10.23
2023-04-24T08:39:43.361Z,10.57
2023-04-24T08:42:10.306Z,7.30
2023-04-24T08:44:37.311Z,8.65
2023-04-24T08:47:04.225Z,7.38
2023-04-24T08:49:31.295Z,6.75
2023-04-24T08:51:57.856Z,6.10
2023-04-24T08:54:25.983Z,6.72
2023-04-24T08:56:55.362Z,7.28
2023-04-24T08:59:23.111Z,5.10
2023-04-24T09:01:52.668Z,10.00
2023-04-24T09:04:23.155Z,4.60
2023-04-24T09:06:50.817Z,7.25
2023-04-24T09:09:18.149Z,7.13
2023-04-24T09:11:44.706Z,6.20
2023-04-24T09:14:12.006Z,8.55
2023-04-24T09:16:38.684Z,3.25
2023-04-24T09:19:05.401Z,6.65
2023-04-24T09:21:36.477Z,2.88
2023-04-24T09:24:08.832Z,5.72
2023-04-24T09:26:38.344Z,7.22
2023-04-24T09:29:06.009Z,5.10
2023-04-24T09:31:32.901Z,2.72
2023-04-24T09:34:02.885Z,3.38
2023-04-24T09:36:35.256Z,3.28
2023-04-24T09:39:02.997Z,2.50
2023-04-24T09:41:30.081Z,4.10
2023-04-24T09:43:57.303Z,5.07
2023-04-24T09:46:34.608Z,3.40
2023-04-24T09:49:11.108Z,3.45
2023-04-24T09:51:39.215Z,2.47
2023-04-24T09:54:15.726Z,10.40
2023-04-24T09:56:50.817Z,4.20
2023-04-24T09:59:20.001Z,4.70
2023-04-24T10:01:47.028Z,2.72
2023-04-24T10:04:25.466Z,4.40
2023-04-24T10:06:54.868Z,5.40
2023-04-24T10:09:25.055Z,5.30
2023-04-24T10:11:54.443Z,4.10
2023-04-24T10:14:23.181Z,4.13
2023-04-24T10:16:53.956Z,3.70
2023-04-24T10:19:21.168Z,5.32
2023-04-24T10:21:48.172Z,10.05
2023-04-24T10:24:16.866Z,9.85
2023-04-24T10:26:45.848Z,7.07
2023-04-24T10:29:14.178Z,8.27
2023-04-24T10:31:41.555Z,3.85
2023-04-24T10:34:09.947Z,2.10
2023-04-24T10:36:39.992Z,9.15
2023-04-24T10:39:11.591Z,2.95
2023-04-24T10:41:39.245Z,3.25
2023-04-24T10:44:10.889Z,6.68
2023-04-24T10:46:38.919Z,3.70
2023-04-24T10:49:09.964Z,6.63
2023-04-24T10:51:54.295Z,3.67
2023-04-24T10:54:30.250Z,6.45
2023-04-24T10:57:21.969Z,4.70
2023-04-24T10:59:50.691Z,3.67
2023-04-24T11:02:18.201Z,3.10
2023-04-24T11:04:46.215Z,11.02
2023-04-24T11:07:13.729Z,4.72
2023-04-24T11:09:44.232Z,4.97
2023-04-24T11:12:14.936Z,4.57
2023-04-24T11:15:03.107Z,4.38
2023-04-24T11:17:34.360Z,4.40
2023-04-24T11:20:25.090Z,6.88
2023-04-24T11:22:59.217Z,6.85
2023-04-24T11:25:26.108Z,2.22
2023-04-24T11:28:04.865Z,6.10
2023-04-24T11:30:32.410Z,7.53
2023-04-24T11:33:04.111Z,5.05
2023-04-24T11:35:31.692Z,7.57
2023-04-24T11:40:28.611Z,2.70
2023-04-24T11:43:00.435Z,3.25
2023-04-24T11:45:31.681Z,3.58
2023-04-24T11:48:00.057Z,6.45
2023-04-24T11:50:29.250Z,4.40
2023-04-24T11:52:57.082Z,5.05
2023-04-24T11:55:23.927Z,4.30
2023-04-24T11:57:53.825Z,6.03
2023-04-24T12:00:22.759Z,5.95
2023-04-24T12:02:51.152Z,5.18
2023-04-24T12:05:23.017Z,5.95
2023-04-24T12:07:50.292Z,3.20
2023-04-24T12:10:24.741Z,6.97
2023-04-24T12:12:52.439Z,4.03
2023-04-24T12:15:21.131Z,3.70
2023-04-24T12:17:48.847Z,3.65
2023-04-24T12:20:16.167Z,6.82
2023-04-24T12:22:47.772Z,3.80
2023-04-24T12:25:17.470Z,6.85
2023-04-24T12:27:45.748Z,2.72
2023-04-24T12:30:16.962Z,5.65
2023-04-24T12:32:48.745Z,5.07
2023-04-24T12:35:21.185Z,8.10
2023-04-24T12:37:48.043Z,5.93
2023-04-24T12:40:15.912Z,4.25
2023-04-24T12:42:52.507Z,2.70
2023-04-24T12:45:20.258Z,5.90
2023-04-24T12:47:47.681Z,3.92
2023-04-24T12:50:16.270Z,5.70
2023-04-24T12:52:43.896Z,3.17
2023-04-24T12:55:11.009Z,4.43
2023-04-24T12:57:40.782Z,3.40
2023-04-24T13:00:09.308Z,4.32
2023-04-24T13:02:36.154Z,4.85
2023-04-24T13:05:03.867Z,4.57
2023-04-24T13:07:30.765Z,2.85
2023-04-24T13:09:58.782Z,3.60
2023-04-24T13:12:26.397Z,5.20
2023-04-24T13:14:53.475Z,4.63
2023-04-24T13:17:20.049Z,4.35
2023-04-24T13:19:46.953Z,2.75
2023-04-24T13:22:14.009Z,5.18
2023-04-24T13:24:42.111Z,4.03
2023-04-24T13:27:10.007Z,2.58
2023-04-24T13:29:37.261Z,4.93
2023-04-24T13:32:04.336Z,2.55
2023-04-24T13:34:30.905Z,6.22
2023-04-24T13:36:59.280Z,3.53
2023-04-24T13:39:27.048Z,3.65
2023-04-24T13:41:54.530Z,5.65
2023-04-24T13:44:22.007Z,12.55
2023-04-24T13:46:50.182Z,4.10
2023-04-24T13:49:17.160Z,5.05
2023-04-24T13:51:44.700Z,2.55
2023-04-24T13:54:11.260Z,4.68
2023-04-24T13:56:38.304Z,5.07
2023-04-24T13:59:04.924Z,8.10
2023-04-24T14:01:31.842Z,7.80
2023-04-24T14:03:58.682Z,4.20
2023-04-24T14:06:25.370Z,2.75
2023-04-24T14:08:52.018Z,4.60
2023-04-24T14:11:19.645Z,3.05
2023-04-24T14:13:47.120Z,10.50
2023-04-24T14:16:14.018Z,6.25
2023-04-24T14:18:40.704Z,5.20
2023-04-24T14:21:08.071Z,7.47
2023-04-24T14:23:34.615Z,3.55
2023-04-24T14:26:01.290Z,4.60
2023-04-24T14:28:27.872Z,5.03
2023-04-24T14:30:54.570Z,5.97
2023-04-24T14:33:21.440Z,3.70
2023-04-24T14:35:48.548Z,6.70
2023-04-24T14:38:16.252Z,3.50
2023-04-24T14:43:12.822Z,5.47
2023-04-24T14:45:41.154Z,3.60
2023-04-24T14:48:09.692Z,8.13
2023-04-24T14:50:36.695Z,2.92
2023-04-24T14:53:03.321Z,3.75
2023-04-24T14:55:29.965Z,4.30
2023-04-24T14:57:56.609Z,2.83
2023-04-24T15:00:25.042Z,4.30
2023-04-24T15:02:51.807Z,2.88
2023-04-24T15:05:18.999Z,5.85
2023-04-24T15:07:46.526Z,4.72
2023-04-24T15:10:13.105Z,6.15
2023-04-24T15:12:39.749Z,3.17
2023-04-24T15:15:07.120Z,3.78
2023-04-24T15:17:33.887Z,7.15
2023-04-24T15:20:01.927Z,5.78
2023-04-24T15:22:28.583Z,5.40
2023-04-24T15:24:55.159Z,1.63
2023-04-24T15:27:21.772Z,4.45
2023-04-24T15:29:48.330Z,4.30
2023-04-24T15:32:14.874Z,3.33
2023-04-24T15:34:41.684Z,6.28
2023-04-24T15:37:08.245Z,4.93
2023-04-24T15:39:34.731Z,6.85
2023-04-24T15:42:01.511Z,8.55
2023-04-24T15:44:28.081Z,3.08
2023-04-24T15:46:55.601Z,5.13
2023-04-24T15:49:22.135Z,4.35
2023-04-24T15:51:48.692Z,7.60
2023-04-24T15:54:15.186Z,5.88
2023-04-24T15:56:41.712Z,4.22
2023-04-24T15:59:08.342Z,3.15
2023-04-24T16:01:35.148Z,7.05
2023-04-24T16:04:01.966Z,5.70
2023-04-24T16:06:28.967Z,4.95
2023-04-24T16:08:58.076Z,4.22
2023-04-24T16:11:26.350Z,5.03
2023-04-24T16:13:53.377Z,4.40
2023-04-24T16:16:19.984Z,5.38
2023-04-24T16:18:47.931Z,5.15
2023-04-24T16:21:14.872Z,7.88
2023-04-24T16:23:42.376Z,4.90
2023-04-24T16:26:08.897Z,4.55
2023-04-24T16:28:35.463Z,6.43
2023-04-24T16:31:02.068Z,7.05
2023-04-24T16:33:28.652Z,3.95
2023-04-24T16:35:56.123Z,2.95
2023-04-24T16:38:24.497Z,6.78
2023-04-24T16:40:51.067Z,5.07
2023-04-24T16:43:18.133Z,4.63
2023-04-24T16:45:44.698Z,4.10
2023-04-24T16:48:11.492Z,4.65
2023-04-24T16:50:39.287Z,4.75
2023-04-24T16:53:06.142Z,8.27
2023-04-24T16:55:32.682Z,4.45
2023-04-24T16:57:59.165Z,4.00
2023-04-24T17:00:25.946Z,4.80
2023-04-24T17:02:52.705Z,6.07
2023-04-24T17:05:21.352Z,4.93
2023-04-24T17:07:48.238Z,3.92
2023-04-24T17:10:14.787Z,5.75
2023-04-24T17:12:41.432Z,4.80
2023-04-24T17:15:08.104Z,6.07
2023-04-24T17:17:34.815Z,4.40
2023-04-24T17:20:05.752Z,3.85
2023-04-24T17:22:38.281Z,3.55
2023-04-24T17:25:05.151Z,3.80
2023-04-24T17:27:31.789Z,5.43
2023-04-24T17:29:59.133Z,4.35
2023-04-24T17:32:26.011Z,8.00
2023-04-24T17:34:52.669Z,5.60
2023-04-24T17:37:23.120Z,2.72
2023-04-24T17:39:50.185Z,7.80
2023-04-24T17:42:17.202Z,5.15
2023-04-24T17:44:43.894Z,2.75
2023-04-24T17:47:10.516Z,5.32
2023-04-24T17:49:38.742Z,7.38
2023-04-24T17:52:06.330Z,6.50
2023-04-24T17:54:33.013Z,4.82
2023-04-24T17:56:59.640Z,8.02
2023-04-24T17:59:26.586Z,3.17
2023-04-24T18:01:53.491Z,4.47
2023-04-24T18:04:20.281Z,6.75
2023-04-24T18:06:46.925Z,2.83
2023-04-24T18:09:15.758Z,7.00
2023-04-24T18:11:42.836Z,5.32
2023-04-24T18:14:09.611Z,5.47
2023-04-24T18:16:36.300Z,6.05
2023-04-24T18:19:02.993Z,3.20
2023-04-24T18:21:29.626Z,1.45
2023-04-24T18:24:00.231Z,5.75
2023-04-24T18:26:27.671Z,4.82
2023-04-24T18:28:54.285Z,3.97
2023-04-24T18:31:20.925Z,3.92
2023-04-24T18:33:47.575Z,5.07
2023-04-24T18:36:14.131Z,3.70
2023-04-24T18:38:40.646Z,2.92
2023-04-24T18:41:07.137Z,3.63
2023-04-24T18:43:33.666Z,4.38
2023-04-24T18:46:00.267Z,4.57
2023-04-24T18:48:28.753Z,5.18
2023-04-24T18:50:55.338Z,5.47
2023-04-24T18:53:21.917Z,3.42
2023-04-24T18:55:48.457Z,7.28
2023-04-24T18:58:14.943Z,9.52
2023-04-24T19:00:41.485Z,5.18
2023-04-24T19:03:09.264Z,6.22
2023-04-24T19:05:36.001Z,5.03
2023-04-24T19:08:02.549Z,7.00
2023-04-24T19:10:29.227Z,4.65
2023-04-24T19:12:56.894Z,4.20
2023-04-24T19:15:24.665Z,4.20
2023-04-24T19:17:51.862Z,6.20
2023-04-24T19:20:21.747Z,5.43
2023-04-24T19:22:48.307Z,5.68
2023-04-24T19:25:14.882Z,8.77
2023-04-24T19:27:41.499Z,3.55
2023-04-24T19:30:08.754Z,8.02
2023-04-24T19:32:35.498Z,4.30
2023-04-24T19:35:02.440Z,5.40
2023-04-24T19:37:29.219Z,6.85
2023-04-24T19:39:55.916Z,5.25
2023-04-24T19:42:31.758Z,5.28
2023-04-24T19:45:02.891Z,6.75
2023-04-24T19:47:29.472Z,3.60
2023-04-24T19:49:56.394Z,2.47
2023-04-24T19:52:22.979Z,6.38
2023-04-24T19:54:51.203Z,7.32
2023-04-24T19:57:17.968Z,7.85
2023-04-24T19:59:44.517Z,5.18
2023-04-24T20:02:11.722Z,5.82
2023-04-24T20:04:38.519Z,8.63
2023-04-24T20:07:05.288Z,4.88
2023-04-24T20:09:33.026Z,5.80
2023-04-24T20:12:00.162Z,4.15
2023-04-24T20:14:26.815Z,5.60
2023-04-24T20:16:54.415Z,6.00
2023-04-24T20:19:21.964Z,4.60
2023-04-24T20:21:48.602Z,4.45
2023-04-24T20:24:16.294Z,6.22
2023-04-24T20:26:43.196Z,6.35
2023-04-24T20:29:10.629Z,5.75
2023-04-24T20:31:37.525Z,8.60
2023-04-24T20:34:05.611Z,9.23
2023-04-24T20:36:33.749Z,7.60
2023-04-24T20:39:01.435Z,6.80
2023-04-24T20:41:28.277Z,8.63
2023-04-24T20:43:54.973Z,2.65
2023-04-24T20:46:22.407Z,6.85
2023-04-24T20:48:49.153Z,9.55
2023-04-24T20:51:15.898Z,7.38
2023-04-24T20:53:42.388Z,5.65
2023-04-24T20:56:09.050Z,5.95
2023-04-24T20:58:35.769Z,5.72
2023-04-24T21:01:02.371Z,4.22
2023-04-24T21:03:28.972Z,4.80
2023-04-24T21:05:55.589Z,7.25
2023-04-24T21:08:22.341Z,7.85
2023-04-24T21:10:48.833Z,4.18
2023-04-24T21:13:15.362Z,3.95
2023-04-24T21:15:41.903Z,3.28
2023-04-24T21:18:08.529Z,7.15
2023-04-24T21:20:35.546Z,3.53
2023-04-24T21:23:02.243Z,9.38
2023-04-24T21:25:30.164Z,7.03
2023-04-24T21:27:59.516Z,6.10
2023-04-24T21:30:26.234Z,2.75
2023-04-24T21:32:53.162Z,4.03
2023-04-24T21:35:19.739Z,5.05
2023-04-24T21:37:46.357Z,2.00
2023-04-24T21:40:13.106Z,5.03
2023-04-24T21:42:40.926Z,4.32
2023-04-24T21:45:08.184Z,3.67
2023-04-24T21:47:35.099Z,4.97
2023-04-24T21:50:01.836Z,4.80
2023-04-24T21:52:28.332Z,3.90
2023-04-24T21:54:54.847Z,4.97
2023-04-24T21:57:21.604Z,7.25
2023-04-24T21:59:48.367Z,4.00
2023-04-24T22:02:14.997Z,5.22
2023-04-24T22:04:42.321Z,7.30
2023-04-24T22:07:09.009Z,6.13
2023-04-24T22:09:36.283Z,7.10
2023-04-24T22:12:02.858Z,3.78
2023-04-24T22:14:29.911Z,7.25
2023-04-24T22:16:57.901Z,6.78
2023-04-24T22:19:26.289Z,7.55
2023-04-24T22:21:53.220Z,8.55
2023-04-24T22:24:20.075Z,7.57
2023-04-24T22:26:46.626Z,9.77
2023-04-24T22:29:13.142Z,5.85
2023-04-24T22:31:39.735Z,5.60
2023-04-24T22:34:06.389Z,5.90
2023-04-24T22:36:34.027Z,5.32
2023-04-24T22:39:00.692Z,4.45
2023-04-24T22:41:27.201Z,4.90
2023-04-24T22:43:53.857Z,4.10
2023-04-24T22:46:20.439Z,4.40
2023-04-24T22:48:49.207Z,6.75
2023-04-24T22:51:18.086Z,3.25
2023-04-24T22:53:44.870Z,6.82
2023-04-24T22:56:11.816Z,3.70
2023-04-24T22:58:38.276Z,5.25
2023-04-24T23:01:04.939Z,5.10
2023-04-24T23:03:31.701Z,5.63
2023-04-24T23:05:58.370Z,6.75
2023-04-24T23:08:24.883Z,9.32
2023-04-24T23:10:51.414Z,8.95
2023-04-24T23:13:17.960Z,7.85
2023-04-24T23:15:44.549Z,7.25
2023-04-24T23:18:11.623Z,8.05
2023-04-24T23:20:38.938Z,9.73
2023-04-24T23:23:06.032Z,8.15
2023-04-24T23:25:32.987Z,9.30
2023-04-24T23:27:59.650Z,8.95
2023-04-24T23:30:26.272Z,7.55
2023-04-24T23:32:53.372Z,8.55
2023-04-24T23:35:19.962Z,5.90
2023-04-24T23:37:46.479Z,10.32
2023-04-24T23:40:13.120Z,5.68
2023-04-24T23:42:39.727Z,6.10
2023-04-24T23:45:07.493Z,5.18
2023-04-24T23:47:34.037Z,5.88
2023-04-24T23:50:01.187Z,8.00
2023-04-24T23:52:27.830Z,9.25
2023-04-24T23:54:54.389Z,5.90
2023-04-24T23:57:21.746Z,8.82
2023-04-24T23:59:48.382Z,5.88
